createdAt,value
2018-03-28T00:00:10.255Z,5.27
2018-03-28T00:02:38.693Z,5.27
2018-03-28T00:05:07.015Z,5.29
2018-03-28T00:07:35.481Z,5.13
2018-03-28T00:10:03.799Z,5.17
2018-03-28T00:12:32.108Z,5.06
2018-03-28T00:15:00.487Z,5.03
2018-03-28T00:17:28.819Z,4.83
2018-03-28T00:19:57.253Z,4.86
2018-03-28T00:22:25.577Z,5.11
2018-03-28T00:24:54.006Z,4.82
2018-03-28T00:27:22.350Z,4.83
2018-03-28T00:29:50.712Z,4.81
2018-03-28T00:32:19.138Z,4.87
2018-03-28T00:34:47.705Z,4.80
2018-03-28T00:37:16.110Z,4.83
2018-03-28T00:39:44.476Z,4.74
2018-03-28T00:42:12.887Z,4.77
2018-03-28T00:44:41.227Z,4.75
2018-03-28T00:47:10.435Z,4.78
2018-03-28T00:49:38.775Z,4.93
2018-03-28T00:52:07.086Z,4.80
2018-03-28T00:54:35.428Z,4.70
2018-03-28T00:57:03.739Z,4.74
2018-03-28T00:59:32.124Z,4.75
2018-03-28T01:02:00.502Z,4.67
2018-03-28T01:04:28.851Z,4.63
2018-03-28T01:06:57.210Z,4.68
2018-03-28T01:09:25.587Z,4.67
2018-03-28T01:11:53.895Z,4.61
2018-03-28T01:14:22.236Z,4.77
2018-03-28T01:16:50.554Z,4.66
2018-03-28T01:19:18.950Z,4.59
2018-03-28T01:21:47.287Z,4.67
2018-03-28T01:24:15.704Z,4.56
2018-03-28T01:26:44.081Z,4.66
2018-03-28T01:29:12.449Z,4.48
2018-03-28T01:31:41.755Z,4.59
2018-03-28T01:34:10.072Z,4.49
2018-03-28T01:36:38.517Z,4.59
2018-03-28T01:39:06.831Z,4.55
2018-03-28T01:41:35.172Z,4.61
2018-03-28T01:44:03.510Z,4.72
2018-03-28T01:46:32.798Z,4.64
2018-03-28T01:49:01.134Z,4.61
2018-03-28T01:51:29.506Z,4.69
2018-03-28T01:53:57.880Z,4.61
2018-03-28T01:56:26.205Z,4.67
2018-03-28T01:58:54.518Z,4.64
2018-03-28T02:01:22.882Z,4.49
2018-03-28T02:03:51.297Z,4.63
2018-03-28T02:06:19.661Z,4.62
2018-03-28T02:08:48.003Z,4.54
2018-03-28T02:11:16.415Z,4.68
2018-03-28T02:13:44.795Z,4.73
2018-03-28T02:16:13.179Z,4.80
2018-03-28T02:18:41.555Z,4.75
2018-03-28T02:21:09.883Z,4.65
2018-03-28T02:23:38.232Z,4.68
2018-03-28T02:26:06.550Z,4.77
2018-03-28T02:28:34.887Z,4.69
2018-03-28T02:31:03.342Z,4.79
2018-03-28T02:33:31.666Z,4.75
2018-03-28T02:36:00.027Z,4.80
2018-03-28T02:38:28.380Z,4.69
2018-03-28T02:40:56.740Z,4.76
2018-03-28T02:43:25.128Z,4.86
2018-03-28T02:45:53.463Z,4.89
2018-03-28T02:48:21.889Z,4.89
2018-03-28T02:50:50.234Z,4.87
2018-03-28T02:53:18.573Z,4.80
2018-03-28T02:55:46.903Z,4.92
2018-03-28T02:58:15.231Z,4.95
2018-03-28T03:00:43.562Z,4.96
2018-03-28T03:03:11.887Z,4.98
2018-03-28T03:05:40.234Z,5.02
2018-03-28T03:08:08.543Z,5.08
2018-03-28T03:10:36.884Z,5.08
2018-03-28T03:13:05.254Z,5.00
2018-03-28T03:15:33.608Z,5.10
2018-03-28T03:18:01.931Z,5.15
2018-03-28T03:20:30.303Z,5.08
2018-03-28T03:22:58.681Z,5.09
2018-03-28T03:25:27.030Z,5.13
2018-03-28T03:27:56.373Z,5.12
2018-03-28T03:30:24.735Z,5.18
2018-03-28T03:32:53.105Z,5.16
2018-03-28T03:35:21.426Z,5.14
2018-03-28T03:37:49.774Z,5.24
2018-03-28T03:40:18.105Z,5.14
2018-03-28T03:42:46.454Z,5.26
2018-03-28T03:45:14.798Z,5.28
2018-03-28T03:47:43.182Z,5.30
2018-03-28T03:50:11.592Z,5.36
2018-03-28T03:52:39.940Z,5.39
2018-03-28T03:55:08.275Z,5.37
2018-03-28T03:57:36.654Z,5.38
2018-03-28T04:00:05.085Z,5.42
2018-03-28T04:02:33.443Z,5.45
2018-03-28T04:05:01.755Z,5.53
2018-03-28T04:07:30.106Z,5.55
2018-03-28T04:09:58.478Z,5.53
2018-03-28T04:12:26.854Z,5.57
2018-03-28T04:14:55.232Z,5.58
2018-03-28T04:17:23.605Z,5.62
2018-03-28T04:19:51.966Z,5.71
2018-03-28T04:22:20.361Z,5.62
2018-03-28T04:24:48.742Z,5.72
2018-03-28T04:27:17.122Z,5.71
2018-03-28T04:29:45.511Z,5.74
2018-03-28T04:32:13.877Z,5.76
2018-03-28T04:34:42.224Z,5.73
2018-03-28T04:37:10.545Z,5.67
2018-03-28T04:39:38.898Z,5.70
2018-03-28T04:42:07.291Z,5.79
2018-03-28T04:44:36.591Z,5.77
2018-03-28T04:47:04.891Z,5.88
2018-03-28T04:49:33.251Z,5.86
2018-03-28T04:52:01.626Z,5.85
2018-03-28T04:54:30.011Z,5.86
2018-03-28T04:56:58.345Z,6.02
2018-03-28T04:59:26.666Z,5.95
2018-03-28T05:01:55.014Z,5.97
2018-03-28T05:04:23.422Z,6.00
2018-03-28T05:06:51.739Z,5.99
2018-03-28T05:09:20.074Z,6.05
2018-03-28T05:11:48.407Z,6.04
2018-03-28T05:14:16.757Z,6.03
2018-03-28T05:16:45.108Z,5.98
2018-03-28T05:19:13.491Z,6.08
2018-03-28T05:21:41.804Z,6.06
2018-03-28T05:24:10.243Z,6.09
2018-03-28T05:26:38.543Z,6.12
2018-03-28T05:29:07.240Z,6.15
2018-03-28T05:31:35.535Z,6.14
2018-03-28T05:34:03.871Z,6.27
2018-03-28T05:36:32.189Z,6.22
2018-03-28T05:39:00.515Z,6.30
2018-03-28T05:41:28.850Z,6.30
2018-03-28T05:43:57.198Z,6.35
2018-03-28T05:46:25.502Z,6.39
2018-03-28T05:48:53.926Z,6.48
2018-03-28T05:51:22.267Z,6.49
2018-03-28T05:53:50.672Z,6.56
2018-03-28T05:56:19.011Z,6.63
2018-03-28T05:58:47.331Z,6.65
2018-03-28T06:01:15.675Z,6.69
2018-03-28T06:03:43.988Z,6.71
2018-03-28T06:06:12.353Z,6.76
2018-03-28T06:08:40.680Z,6.77
2018-03-28T06:11:09.002Z,6.79
2018-03-28T06:13:37.314Z,6.80
2018-03-28T06:16:05.671Z,6.85
2018-03-28T06:18:34.050Z,6.91
2018-03-28T06:21:02.422Z,7.02
2018-03-28T06:23:30.720Z,7.02
2018-03-28T06:25:59.094Z,7.05
2018-03-28T06:28:27.392Z,7.12
2018-03-28T06:30:55.734Z,7.24
2018-03-28T06:33:24.118Z,7.22
2018-03-28T06:35:52.599Z,7.37
2018-03-28T06:38:20.939Z,7.36
2018-03-28T06:40:49.329Z,7.49
2018-03-28T06:43:17.743Z,7.54
2018-03-28T06:45:46.106Z,7.50
2018-03-28T06:48:14.445Z,7.56
2018-03-28T06:50:42.755Z,7.59
2018-03-28T06:53:11.144Z,7.69
2018-03-28T06:55:39.522Z,7.67
2018-03-28T06:58:07.858Z,7.83
2018-03-28T07:00:36.180Z,7.95
2018-03-28T07:03:04.529Z,7.86
2018-03-28T07:05:32.871Z,7.85
2018-03-28T07:08:01.233Z,7.99
2018-03-28T07:10:29.546Z,8.16
2018-03-28T07:12:57.873Z,8.03
2018-03-28T07:15:26.209Z,7.99
2018-03-28T07:17:54.543Z,8.11
2018-03-28T07:20:22.891Z,8.31
2018-03-28T07:22:51.247Z,8.19
2018-03-28T07:25:19.591Z,8.28
2018-03-28T07:27:47.948Z,8.60
2018-03-28T07:30:16.247Z,8.50
2018-03-28T07:32:44.558Z,8.39
2018-03-28T07:35:12.903Z,8.50
2018-03-28T07:37:41.238Z,8.73
2018-03-28T07:40:09.582Z,8.70
2018-03-28T07:42:37.894Z,8.76
2018-03-28T07:45:06.285Z,8.86
2018-03-28T07:47:34.589Z,8.99
2018-03-28T07:50:02.932Z,9.16
2018-03-28T07:52:31.303Z,9.41
2018-03-28T07:54:59.683Z,9.25
2018-03-28T07:57:28.894Z,9.58
2018-03-28T07:59:57.226Z,9.33
2018-03-28T08:02:25.531Z,9.59
2018-03-28T08:04:53.867Z,9.67
2018-03-28T08:07:22.171Z,9.39
2018-03-28T08:09:50.508Z,9.52
2018-03-28T08:12:18.818Z,9.38
2018-03-28T08:14:47.179Z,9.48
2018-03-28T08:17:15.590Z,9.65
2018-03-28T08:19:43.977Z,9.88
2018-03-28T08:22:12.283Z,9.80
2018-03-28T08:24:40.590Z,9.96
2018-03-28T08:27:08.930Z,10.19
2018-03-28T08:29:37.244Z,10.27
2018-03-28T08:32:05.586Z,10.40
2018-03-28T08:34:33.950Z,10.30
2018-03-28T08:37:02.336Z,10.39
2018-03-28T08:39:30.703Z,10.05
2018-03-28T08:41:59.031Z,9.83
2018-03-28T08:44:27.331Z,9.95
2018-03-28T08:46:55.653Z,9.95
2018-03-28T08:49:23.967Z,10.01
2018-03-28T08:51:52.395Z,10.03
2018-03-28T08:54:20.710Z,9.81
2018-03-28T08:56:49.083Z,10.09
2018-03-28T08:59:17.406Z,10.18
2018-03-28T09:01:45.748Z,10.14
2018-03-28T09:04:15.041Z,10.11
2018-03-28T09:06:43.388Z,10.19
2018-03-28T09:09:11.766Z,10.30
2018-03-28T09:11:40.121Z,10.37
2018-03-28T09:14:08.439Z,10.24
2018-03-28T09:16:36.775Z,10.50
2018-03-28T09:19:05.094Z,10.73
2018-03-28T09:21:33.444Z,10.98
2018-03-28T09:24:01.823Z,10.93
2018-03-28T09:26:30.333Z,11.06
2018-03-28T09:28:58.672Z,10.93
2018-03-28T09:31:27.063Z,10.59
2018-03-28T09:33:55.403Z,10.78
2018-03-28T09:36:23.811Z,10.82
2018-03-28T09:38:52.187Z,10.83
2018-03-28T09:41:20.566Z,10.87
2018-03-28T09:43:48.942Z,10.60
2018-03-28T09:46:17.322Z,10.71
2018-03-28T09:48:45.774Z,10.60
2018-03-28T09:51:14.092Z,10.68
2018-03-28T09:53:42.413Z,10.76
2018-03-28T09:56:10.737Z,11.06
2018-03-28T09:58:39.105Z,11.26
2018-03-28T10:01:08.200Z,11.26
2018-03-28T10:03:42.081Z,10.71
2018-03-28T10:06:10.404Z,11.00
2018-03-28T10:08:38.756Z,11.08
2018-03-28T10:11:08.071Z,10.94
2018-03-28T10:13:36.391Z,10.99
2018-03-28T10:16:04.723Z,10.94
2018-03-28T10:18:33.080Z,10.86
2018-03-28T10:21:01.393Z,10.88
2018-03-28T10:23:29.719Z,11.10
2018-03-28T10:25:58.051Z,10.99
2018-03-28T10:28:26.359Z,11.33
2018-03-28T10:30:54.774Z,10.77
2018-03-28T10:33:23.231Z,11.20
2018-03-28T10:35:51.667Z,11.03
2018-03-28T10:38:19.971Z,10.95
2018-03-28T10:40:48.309Z,11.10
2018-03-28T10:43:16.682Z,11.03
2018-03-28T10:45:45.020Z,10.81
2018-03-28T10:48:13.338Z,10.87
2018-03-28T10:50:41.670Z,11.08
2018-03-28T10:53:10.014Z,10.98
2018-03-28T10:55:38.383Z,10.96
2018-03-28T10:58:06.705Z,11.04
2018-03-28T11:00:35.035Z,11.21
2018-03-28T11:03:03.410Z,11.52
2018-03-28T11:05:31.757Z,11.85
2018-03-28T11:08:00.087Z,11.47
2018-03-28T11:10:28.422Z,11.66
2018-03-28T11:12:56.731Z,11.32
2018-03-28T11:15:25.092Z,11.91
2018-03-28T11:17:53.470Z,11.48
2018-03-28T11:20:21.796Z,12.02
2018-03-28T11:22:50.128Z,12.35
2018-03-28T11:25:18.608Z,11.60
2018-03-28T11:27:46.982Z,11.48
2018-03-28T11:30:15.306Z,10.96
2018-03-28T11:32:43.631Z,11.01
2018-03-28T11:35:12.023Z,11.06
2018-03-28T11:37:40.385Z,10.89
2018-03-28T11:40:08.763Z,10.96
2018-03-28T11:42:37.143Z,11.14
2018-03-28T11:45:05.469Z,11.35
2018-03-28T11:47:34.203Z,11.24
2018-03-28T11:50:02.478Z,11.52
2018-03-28T11:52:30.818Z,11.27
2018-03-28T11:54:59.126Z,11.38
2018-03-28T11:57:27.471Z,11.35
2018-03-28T11:59:55.786Z,11.23
2018-03-28T12:02:24.166Z,11.08
2018-03-28T12:04:52.472Z,10.87
2018-03-28T12:07:20.810Z,10.89
2018-03-28T12:09:49.133Z,10.81
2018-03-28T12:12:17.469Z,10.92
2018-03-28T12:14:45.790Z,10.87
2018-03-28T12:17:14.118Z,10.87
2018-03-28T12:19:42.458Z,11.09
2018-03-28T12:22:10.771Z,11.14
2018-03-28T12:24:39.162Z,11.23
2018-03-28T12:27:07.531Z,11.26
2018-03-28T12:29:35.910Z,11.30
2018-03-28T12:32:04.265Z,11.17
2018-03-28T12:34:32.686Z,11.36
2018-03-28T12:37:01.066Z,11.76
2018-03-28T12:39:29.437Z,11.90
2018-03-28T12:41:57.759Z,11.71
2018-03-28T12:44:26.100Z,11.74
2018-03-28T12:46:54.417Z,12.08
2018-03-28T12:49:22.847Z,11.48
2018-03-28T12:51:51.174Z,11.39
2018-03-28T12:54:19.644Z,11.18
2018-03-28T12:56:47.930Z,11.15
2018-03-28T12:59:16.586Z,11.63
2018-03-28T13:01:44.939Z,12.00
2018-03-28T13:04:13.294Z,12.25
2018-03-28T13:06:41.603Z,13.41
2018-03-28T13:09:09.978Z,13.88
2018-03-28T13:11:38.350Z,13.44
2018-03-28T13:14:06.727Z,12.78
2018-03-28T13:16:35.152Z,11.96
2018-03-28T13:19:03.586Z,11.94
2018-03-28T13:21:31.934Z,11.91
2018-03-28T13:24:00.348Z,11.85
2018-03-28T13:26:28.747Z,11.38
2018-03-28T13:28:57.107Z,11.27
2018-03-28T13:31:25.451Z,11.34
2018-03-28T13:33:53.869Z,11.51
2018-03-28T13:36:22.247Z,11.32
2018-03-28T13:38:50.571Z,11.67
2018-03-28T13:41:19.909Z,11.27
2018-03-28T13:43:48.291Z,11.26
2018-03-28T13:46:16.638Z,11.34
2018-03-28T13:48:44.951Z,11.43
2018-03-28T13:51:13.371Z,11.41
2018-03-28T13:53:41.666Z,11.46
2018-03-28T13:56:10.014Z,11.63
2018-03-28T13:58:38.468Z,11.77
2018-03-28T14:01:06.869Z,11.51
2018-03-28T14:03:35.194Z,11.34
2018-03-28T14:06:03.540Z,11.60
2018-03-28T14:08:31.865Z,11.45
2018-03-28T14:11:00.203Z,11.50
2018-03-28T14:13:28.547Z,11.73
2018-03-28T14:15:56.895Z,11.53
2018-03-28T14:18:25.211Z,11.59
2018-03-28T14:20:53.563Z,11.79
2018-03-28T14:23:21.895Z,12.25
2018-03-28T14:25:50.227Z,11.73
2018-03-28T14:28:18.611Z,11.66
2018-03-28T14:30:46.935Z,11.88
2018-03-28T14:33:15.310Z,11.81
2018-03-28T14:35:43.662Z,11.57
2018-03-28T14:38:11.964Z,11.60
2018-03-28T14:40:40.271Z,11.50
2018-03-28T14:43:08.615Z,11.63
2018-03-28T14:45:36.934Z,11.77
2018-03-28T14:48:05.331Z,11.71
2018-03-28T14:50:33.660Z,11.90
2018-03-28T14:53:02.124Z,11.74
2018-03-28T14:55:30.411Z,11.80
2018-03-28T14:57:58.862Z,11.55
2018-03-28T15:00:27.171Z,11.59
2018-03-28T15:02:55.508Z,11.72
2018-03-28T15:05:23.822Z,11.71
2018-03-28T15:07:52.238Z,11.63
2018-03-28T15:10:20.562Z,11.69
2018-03-28T15:12:48.911Z,11.73
2018-03-28T15:15:17.232Z,11.60
2018-03-28T15:17:45.665Z,11.65
2018-03-28T15:20:13.990Z,11.43
2018-03-28T15:22:42.310Z,11.35
2018-03-28T15:25:10.655Z,11.25
2018-03-28T15:27:38.979Z,11.25
2018-03-28T15:30:07.325Z,11.16
2018-03-28T15:32:35.651Z,11.09
2018-03-28T15:35:03.982Z,10.90
2018-03-28T15:37:32.416Z,10.98
2018-03-28T15:40:00.750Z,10.91
2018-03-28T15:42:29.077Z,10.86
2018-03-28T15:44:57.469Z,10.82
2018-03-28T15:47:25.787Z,10.74
2018-03-28T15:49:54.166Z,10.62
2018-03-28T15:52:22.540Z,10.48
2018-03-28T15:54:50.886Z,10.69
2018-03-28T15:57:19.199Z,10.54
2018-03-28T15:59:47.555Z,10.54
2018-03-28T16:02:15.949Z,10.48
2018-03-28T16:04:44.306Z,10.33
2018-03-28T16:07:12.708Z,10.42
2018-03-28T16:09:41.060Z,10.30
2018-03-28T16:12:09.473Z,10.25
2018-03-28T16:14:37.808Z,10.20
2018-03-28T16:17:06.279Z,10.21
2018-03-28T16:19:34.563Z,10.19
2018-03-28T16:22:03.021Z,10.15
2018-03-28T16:24:31.332Z,10.05
2018-03-28T16:26:59.772Z,9.89
2018-03-28T16:29:28.159Z,9.82
2018-03-28T16:31:56.475Z,9.81
2018-03-28T16:34:24.805Z,9.91
2018-03-28T16:36:53.150Z,9.92
2018-03-28T16:39:21.465Z,9.85
2018-03-28T16:41:49.782Z,9.75
2018-03-28T16:44:18.107Z,9.84
2018-03-28T16:46:46.441Z,9.79
2018-03-28T16:49:14.848Z,9.78
2018-03-28T16:51:43.291Z,9.86
2018-03-28T16:54:11.599Z,9.85
2018-03-28T16:56:39.939Z,9.77
2018-03-28T16:59:08.474Z,9.71
2018-03-28T17:01:36.827Z,9.73
2018-03-28T17:04:05.135Z,9.72
2018-03-28T17:06:33.484Z,9.64
2018-03-28T17:09:01.820Z,9.57
2018-03-28T17:11:30.198Z,9.54
2018-03-28T17:13:58.527Z,9.53
2018-03-28T17:16:26.916Z,9.51
2018-03-28T17:18:55.296Z,9.44
2018-03-28T17:21:23.655Z,9.50
2018-03-28T17:23:52.021Z,9.39
2018-03-28T17:26:20.359Z,9.38
2018-03-28T17:28:48.707Z,9.43
2018-03-28T17:31:17.051Z,9.39
2018-03-28T17:33:45.390Z,9.35
2018-03-28T17:36:13.811Z,9.28
2018-03-28T17:38:42.200Z,9.34
2018-03-28T17:41:10.562Z,9.62
2018-03-28T17:43:38.905Z,9.48
2018-03-28T17:46:07.306Z,9.35
2018-03-28T17:48:35.680Z,9.29
2018-03-28T17:51:03.981Z,9.28
2018-03-28T17:53:32.374Z,9.23
2018-03-28T17:56:00.715Z,9.26
2018-03-28T17:58:29.075Z,9.23
2018-03-28T18:00:57.377Z,9.30
2018-03-28T18:03:25.727Z,9.27
2018-03-28T18:05:54.142Z,9.23
2018-03-28T18:08:22.489Z,9.21
2018-03-28T18:10:50.831Z,9.25
2018-03-28T18:13:19.194Z,9.26
2018-03-28T18:15:47.547Z,9.26
2018-03-28T18:18:15.903Z,9.26
2018-03-28T18:20:44.262Z,9.27
2018-03-28T18:23:12.576Z,9.39
2018-03-28T18:25:40.926Z,9.36
2018-03-28T18:28:09.228Z,9.34
2018-03-28T18:30:37.580Z,9.36
2018-03-28T18:33:05.902Z,9.34
2018-03-28T18:35:34.278Z,9.35
2018-03-28T18:38:02.662Z,9.38
2018-03-28T18:40:31.109Z,9.31
2018-03-28T18:42:59.315Z,9.39
2018-03-28T18:45:27.643Z,9.34
2018-03-28T18:47:56.347Z,9.31
2018-03-28T18:50:24.799Z,9.30
2018-03-28T18:52:53.142Z,9.28
2018-03-28T18:55:21.530Z,9.25
2018-03-28T18:57:49.840Z,9.24
2018-03-28T19:00:18.262Z,9.19
2018-03-28T19:02:46.588Z,9.23
2018-03-28T19:05:15.031Z,9.23
2018-03-28T19:07:44.068Z,9.28
2018-03-28T19:10:12.414Z,9.19
2018-03-28T19:12:40.792Z,9.16
2018-03-28T19:15:09.154Z,9.21
2018-03-28T19:17:37.494Z,9.18
2018-03-28T19:20:05.860Z,9.21
2018-03-28T19:22:34.195Z,9.22
2018-03-28T19:25:02.572Z,9.15
2018-03-28T19:27:31.045Z,9.09
2018-03-28T19:29:59.355Z,9.06
2018-03-28T19:32:27.687Z,9.07
2018-03-28T19:34:56.075Z,9.10
2018-03-28T19:37:24.457Z,9.12
2018-03-28T19:39:52.842Z,9.14
2018-03-28T19:42:21.163Z,9.12
2018-03-28T19:44:50.466Z,9.14
2018-03-28T19:47:18.796Z,9.16
2018-03-28T19:49:47.210Z,9.17
2018-03-28T19:52:15.545Z,9.12
2018-03-28T19:54:43.926Z,9.07
2018-03-28T19:57:12.256Z,9.16
2018-03-28T19:59:40.554Z,9.07
2018-03-28T20:02:08.986Z,9.11
2018-03-28T20:04:37.280Z,9.30
2018-03-28T20:07:05.721Z,9.10
2018-03-28T20:09:34.089Z,9.01
2018-03-28T20:12:02.427Z,9.04
2018-03-28T20:14:30.784Z,9.01
2018-03-28T20:16:59.130Z,9.03
2018-03-28T20:19:27.426Z,9.01
2018-03-28T20:21:55.742Z,9.03
2018-03-28T20:24:24.166Z,9.05
2018-03-28T20:26:52.483Z,9.05
2018-03-28T20:29:20.921Z,9.11
2018-03-28T20:31:49.302Z,9.00
2018-03-28T20:34:17.644Z,9.03
2018-03-28T20:36:45.961Z,9.15
2018-03-28T20:39:14.293Z,9.13
2018-03-28T20:41:42.607Z,9.11
2018-03-28T20:44:10.938Z,9.18
2018-03-28T20:46:39.283Z,9.15
2018-03-28T20:49:07.651Z,9.18
2018-03-28T20:51:36.019Z,9.35
2018-03-28T20:54:04.387Z,9.34
2018-03-28T20:56:32.771Z,9.29
2018-03-28T20:59:01.807Z,9.37
2018-03-28T21:01:30.215Z,9.39
2018-03-28T21:03:58.619Z,9.42
2018-03-28T21:06:26.930Z,9.49
2018-03-28T21:08:55.370Z,9.42
2018-03-28T21:11:23.687Z,9.44
2018-03-28T21:13:52.022Z,9.40
2018-03-28T21:16:20.410Z,9.40
2018-03-28T21:18:48.757Z,9.46
2018-03-28T21:21:17.058Z,9.43
2018-03-28T21:23:45.399Z,9.40
2018-03-28T21:26:13.710Z,9.47
2018-03-28T21:28:42.082Z,9.42
2018-03-28T21:31:10.419Z,9.43
2018-03-28T21:33:38.751Z,9.51
2018-03-28T21:36:07.091Z,9.48
2018-03-28T21:38:35.491Z,9.35
2018-03-28T21:41:03.877Z,9.33
2018-03-28T21:43:32.135Z,9.37
2018-03-28T21:46:00.460Z,9.34
2018-03-28T21:48:28.782Z,9.26
2018-03-28T21:50:57.182Z,9.25
2018-03-28T21:53:25.494Z,9.19
2018-03-28T21:55:53.836Z,9.21
2018-03-28T21:58:22.162Z,9.24
2018-03-28T22:00:50.501Z,9.24
2018-03-28T22:03:18.828Z,9.22
2018-03-28T22:05:47.160Z,9.18
2018-03-28T22:08:15.531Z,9.27
2018-03-28T22:10:43.889Z,9.23
2018-03-28T22:13:12.286Z,9.15
2018-03-28T22:15:40.651Z,9.11
2018-03-28T22:18:09.060Z,9.08
2018-03-28T22:20:37.424Z,9.04
2018-03-28T22:23:05.742Z,9.04
2018-03-28T22:25:34.089Z,9.07
2018-03-28T22:28:02.470Z,9.00
2018-03-28T22:30:30.842Z,9.04
2018-03-28T22:32:59.184Z,9.00
2018-03-28T22:35:27.492Z,8.99
2018-03-28T22:37:55.822Z,9.01
2018-03-28T22:40:24.142Z,9.01
2018-03-28T22:42:52.525Z,9.05
2018-03-28T22:45:20.835Z,9.04
2018-03-28T22:47:49.154Z,9.00
2018-03-28T22:50:17.495Z,9.01
2018-03-28T22:52:45.855Z,8.94
2018-03-28T22:55:14.174Z,8.96
2018-03-28T22:57:42.587Z,8.90
2018-03-28T23:00:10.967Z,8.93
2018-03-28T23:02:39.307Z,8.90
2018-03-28T23:05:07.730Z,8.92
2018-03-28T23:07:36.206Z,8.90
2018-03-28T23:10:04.633Z,8.90
2018-03-28T23:12:32.955Z,8.85
2018-03-28T23:15:01.262Z,8.84
2018-03-28T23:17:29.662Z,8.80
2018-03-28T23:19:58.012Z,8.73
2018-03-28T23:22:37.436Z,8.74
2018-03-28T23:25:05.739Z,8.74
2018-03-28T23:27:34.071Z,8.75
2018-03-28T23:30:02.370Z,8.73
2018-03-28T23:32:30.699Z,8.70
2018-03-28T23:34:59.034Z,8.71
2018-03-28T23:37:27.483Z,8.76
2018-03-28T23:39:55.844Z,8.75
2018-03-28T23:42:24.210Z,8.77
2018-03-28T23:44:52.646Z,8.71
2018-03-28T23:47:20.960Z,8.71
2018-03-28T23:49:49.305Z,8.67
2018-03-28T23:52:17.666Z,8.68
2018-03-28T23:54:46.005Z,8.58
2018-03-28T23:57:14.304Z,8.59
2018-03-28T23:59:42.693Z,8.52
